createdAt,value
2023-04-27T00:00:21.707Z,101354.33
2023-04-27T00:01:43.301Z,101354.27
2023-04-27T00:02:45.053Z,101357.15
2023-04-27T00:03:46.827Z,101356.26
2023-04-27T00:04:48.548Z,101355.29
2023-04-27T00:05:50.959Z,101357.16
2023-04-27T00:06:52.577Z,101355.06
2023-04-27T00:07:54.049Z,101355.23
2023-04-27T00:08:55.855Z,101356.94
2023-04-27T00:09:57.447Z,101363.39
2023-04-27T00:10:59.452Z,101353.91
2023-04-27T00:12:01.298Z,101354.30
2023-04-27T00:13:03.057Z,101355.76
2023-04-27T00:14:04.624Z,101355.23
2023-04-27T00:15:06.910Z,101355.47
2023-04-27T00:16:08.450Z,101355.46
2023-04-27T00:17:10.352Z,101356.70
2023-04-27T00:18:11.752Z,101355.46
2023-04-27T00:19:15.012Z,101353.46
2023-04-27T00:20:18.011Z,101355.90
2023-04-27T00:21:19.551Z,101354.50
2023-04-27T00:22:21.083Z,101353.58
2023-04-27T00:23:22.492Z,101356.20
2023-04-27T00:24:23.905Z,101355.14
2023-04-27T00:25:25.441Z,101358.86
2023-04-27T00:26:27.052Z,101352.67
2023-04-27T00:27:28.649Z,101359.59
2023-04-27T00:28:30.233Z,101360.52
2023-04-27T00:29:33.507Z,101362.08
2023-04-27T00:30:35.429Z,101361.80
2023-04-27T00:31:36.884Z,101359.01
2023-04-27T00:32:38.361Z,101360.42
2023-04-27T00:33:39.943Z,101363.27
2023-04-27T00:34:41.353Z,101368.23
2023-04-27T00:35:42.752Z,101363.98
2023-04-27T00:36:44.155Z,101366.25
2023-04-27T00:37:47.416Z,101370.27
2023-04-27T00:38:48.870Z,101365.69
2023-04-27T00:39:50.455Z,101364.67
2023-04-27T00:40:52.484Z,101362.45
2023-04-27T00:41:54.742Z,101361.69
2023-04-27T00:42:56.303Z,101366.91
2023-04-27T00:43:58.015Z,101366.34
2023-04-27T00:45:01.676Z,101364.52
2023-04-27T00:46:03.293Z,101364.09
2023-04-27T00:47:05.408Z,101366.08
2023-04-27T00:48:06.931Z,101361.13
2023-04-27T00:49:08.861Z,101361.33
2023-04-27T00:50:11.449Z,101362.69
2023-04-27T00:51:13.082Z,101358.60
2023-04-27T00:52:14.870Z,101363.05
2023-04-27T00:53:18.234Z,101367.01
2023-04-27T00:54:23.159Z,101363.25
2023-04-27T00:55:24.925Z,101364.61
2023-04-27T00:56:26.427Z,101364.30
2023-04-27T00:57:27.878Z,101362.24
2023-04-27T00:58:29.621Z,101368.17
2023-04-27T00:59:31.270Z,101368.55
2023-04-27T01:00:35.443Z,101368.09
2023-04-27T01:01:37.021Z,101364.76
2023-04-27T01:02:39.579Z,101369.11
2023-04-27T01:03:41.305Z,101368.11
2023-04-27T01:04:42.854Z,101369.45
2023-04-27T01:05:44.252Z,101369.82
2023-04-27T01:06:45.798Z,101370.15
2023-04-27T01:07:47.269Z,101365.86
2023-04-27T01:08:48.757Z,101367.45
2023-04-27T01:09:50.237Z,101372.77
2023-04-27T01:10:52.276Z,101370.88
2023-04-27T01:11:53.683Z,101373.87
2023-04-27T01:12:55.607Z,101369.44
2023-04-27T01:13:57.185Z,101371.50
2023-04-27T01:14:58.828Z,101375.68
2023-04-27T01:16:00.217Z,101372.20
2023-04-27T01:17:01.897Z,101371.34
2023-04-27T01:18:03.716Z,101375.59
2023-04-27T01:19:07.108Z,101376.22
2023-04-27T01:20:09.361Z,101372.86
2023-04-27T01:21:10.969Z,101371.56
2023-04-27T01:22:14.529Z,101379.09
2023-04-27T01:23:17.272Z,101376.77
2023-04-27T01:24:19.123Z,101373.88
2023-04-27T01:25:20.583Z,101375.07
2023-04-27T01:26:22.049Z,101373.27
2023-04-27T01:27:23.707Z,101375.26
2023-04-27T01:28:25.198Z,101377.33
2023-04-27T01:29:26.780Z,101379.06
2023-04-27T01:30:29.380Z,101377.50
2023-04-27T01:32:59.583Z,101375.23
2023-04-27T01:34:01.497Z,101376.55
2023-04-27T01:35:03.014Z,101376.35
2023-04-27T01:36:04.718Z,101375.27
2023-04-27T01:37:06.159Z,101376.80
2023-04-27T01:38:07.802Z,101375.67
2023-04-27T01:39:09.360Z,101374.27
2023-04-27T01:40:11.311Z,101379.92
2023-04-27T01:41:12.970Z,101377.89
2023-04-27T01:42:16.521Z,101376.65
2023-04-27T01:43:17.978Z,101380.98
2023-04-27T01:44:20.452Z,101381.00
2023-04-27T01:45:22.574Z,101380.64
2023-04-27T01:46:24.043Z,101378.41
2023-04-27T01:47:26.848Z,101381.06
2023-04-27T01:48:28.271Z,101382.09
2023-04-27T01:49:29.696Z,101384.51
2023-04-27T01:50:31.265Z,101383.70
2023-04-27T01:51:32.951Z,101388.48
2023-04-27T01:52:34.701Z,101387.63
2023-04-27T01:53:37.274Z,101387.96
2023-04-27T01:54:38.654Z,101390.98
2023-04-27T01:55:41.326Z,101391.18
2023-04-27T01:56:42.834Z,101396.20
2023-04-27T01:57:44.357Z,101394.92
2023-04-27T01:58:46.084Z,101394.71
2023-04-27T01:59:48.206Z,101390.42
2023-04-27T02:00:49.992Z,101394.01
2023-04-27T02:01:51.383Z,101395.83
2023-04-27T02:02:53.610Z,101394.36
2023-04-27T02:03:55.522Z,101395.13
2023-04-27T02:04:57.170Z,101394.27
2023-04-27T02:06:01.024Z,101399.11
2023-04-27T02:07:02.791Z,101394.40
2023-04-27T02:08:04.592Z,101392.35
2023-04-27T02:09:06.709Z,101391.94
2023-04-27T02:10:08.542Z,101394.23
2023-04-27T02:11:10.112Z,101395.59
2023-04-27T02:12:11.513Z,101392.13
2023-04-27T02:13:13.023Z,101391.73
2023-04-27T02:14:14.377Z,101392.73
2023-04-27T02:15:16.007Z,101390.18
2023-04-27T02:16:17.519Z,101391.45
2023-04-27T02:17:19.089Z,101393.14
2023-04-27T02:18:20.893Z,101392.51
2023-04-27T02:19:22.677Z,101391.54
2023-04-27T02:20:24.141Z,101390.63
2023-04-27T02:21:25.838Z,101390.61
2023-04-27T02:22:27.262Z,101385.96
2023-04-27T02:23:28.658Z,101385.73
2023-04-27T02:24:30.574Z,101387.11
2023-04-27T02:25:32.055Z,101386.36
2023-04-27T02:26:33.433Z,101384.80
2023-04-27T02:27:40.184Z,101383.73
2023-04-27T02:28:42.176Z,101386.59
2023-04-27T02:29:44.192Z,101385.39
2023-04-27T02:30:46.569Z,101382.23
2023-04-27T02:31:48.193Z,101390.18
2023-04-27T02:32:49.653Z,101392.30
2023-04-27T02:33:51.292Z,101387.95
2023-04-27T02:34:52.843Z,101389.73
2023-04-27T02:35:54.238Z,101395.87
2023-04-27T02:36:55.922Z,101395.92
2023-04-27T02:37:57.387Z,101393.16
2023-04-27T02:38:58.853Z,101391.91
2023-04-27T02:40:00.427Z,101397.27
2023-04-27T02:41:01.874Z,101397.77
2023-04-27T02:42:03.484Z,101392.55
2023-04-27T02:43:04.899Z,101396.42
2023-04-27T02:44:06.371Z,101396.31
2023-04-27T02:45:08.078Z,101393.84
2023-04-27T02:46:11.529Z,101398.04
2023-04-27T02:47:13.073Z,101395.88
2023-04-27T02:48:14.536Z,101397.13
2023-04-27T02:49:16.570Z,101402.42
2023-04-27T02:50:18.410Z,101401.12
2023-04-27T02:51:19.833Z,101400.45
2023-04-27T02:52:21.508Z,101405.89
2023-04-27T02:53:22.962Z,101401.15
2023-04-27T02:54:24.849Z,101406.27
2023-04-27T02:55:26.871Z,101403.85
2023-04-27T02:56:28.291Z,101408.46
2023-04-27T02:57:30.047Z,101409.13
2023-04-27T02:58:31.547Z,101409.88
2023-04-27T02:59:32.921Z,101410.55
2023-04-27T03:00:34.382Z,101407.05
2023-04-27T03:01:35.989Z,101410.27
2023-04-27T03:02:37.798Z,101409.70
2023-04-27T03:03:39.521Z,101411.52
2023-04-27T03:04:41.331Z,101413.65
2023-04-27T03:05:42.944Z,101410.96
2023-04-27T03:06:44.428Z,101416.84
2023-04-27T03:07:45.877Z,101416.14
2023-04-27T03:08:47.260Z,101416.11
2023-04-27T03:09:48.686Z,101414.08
2023-04-27T03:10:50.293Z,101417.57
2023-04-27T03:11:52.138Z,101423.41
2023-04-27T03:12:53.554Z,101426.46
2023-04-27T03:13:56.325Z,101419.62
2023-04-27T03:14:58.947Z,101426.05
2023-04-27T03:16:00.458Z,101425.79
2023-04-27T03:17:02.527Z,101424.64
2023-04-27T03:18:04.303Z,101435.18
2023-04-27T03:19:06.487Z,101426.98
2023-04-27T03:20:09.351Z,101432.58
2023-04-27T03:21:12.088Z,101428.48
2023-04-27T03:22:13.567Z,101432.07
2023-04-27T03:23:16.831Z,101432.27
2023-04-27T03:24:19.319Z,101431.23
2023-04-27T03:25:21.280Z,101432.66
2023-04-27T03:26:23.156Z,101433.95
2023-04-27T03:27:24.674Z,101435.94
2023-04-27T03:28:26.126Z,101435.44
2023-04-27T03:29:30.530Z,101433.64
2023-04-27T03:30:32.035Z,101440.33
2023-04-27T03:31:33.449Z,101437.93
2023-04-27T03:32:35.054Z,101436.84
2023-04-27T03:33:37.178Z,101436.87
2023-04-27T03:34:38.651Z,101439.13
2023-04-27T03:35:40.478Z,101439.66
2023-04-27T03:36:41.921Z,101440.61
2023-04-27T03:37:45.431Z,101440.70
2023-04-27T03:38:46.920Z,101441.80
2023-04-27T03:39:48.673Z,101440.60
2023-04-27T03:40:50.645Z,101444.76
2023-04-27T03:41:52.154Z,101442.99
2023-04-27T03:42:53.679Z,101442.98
2023-04-27T03:43:55.304Z,101443.44
2023-04-27T03:44:56.768Z,101444.50
2023-04-27T03:45:58.278Z,101441.21
2023-04-27T03:47:01.036Z,101441.52
2023-04-27T03:48:02.571Z,101441.52
2023-04-27T03:49:04.250Z,101447.98
2023-04-27T03:50:06.281Z,101446.41
2023-04-27T03:51:07.646Z,101443.36
2023-04-27T03:52:09.502Z,101448.34
2023-04-27T03:53:10.909Z,101446.91
2023-04-27T03:54:12.291Z,101449.36
2023-04-27T03:55:13.885Z,101445.42
2023-04-27T03:56:15.813Z,101448.33
2023-04-27T03:57:17.248Z,101448.96
2023-04-27T03:58:18.750Z,101449.80
2023-04-27T03:59:38.684Z,101450.81
2023-04-27T04:00:40.356Z,101448.30
2023-04-27T04:01:41.856Z,101452.65
2023-04-27T04:02:44.277Z,101448.03
2023-04-27T04:03:47.455Z,101453.30
2023-04-27T04:04:49.256Z,101450.55
2023-04-27T04:05:52.247Z,101454.60
2023-04-27T04:06:53.789Z,101455.23
2023-04-27T04:07:55.579Z,101455.67
2023-04-27T04:08:57.827Z,101455.58
2023-04-27T04:09:59.380Z,101454.56
2023-04-27T04:11:00.927Z,101456.74
2023-04-27T04:12:03.095Z,101459.50
2023-04-27T04:13:04.816Z,101459.82
2023-04-27T04:14:06.241Z,101454.80
2023-04-27T04:15:08.180Z,101461.09
2023-04-27T04:16:09.888Z,101458.38
2023-04-27T04:17:11.368Z,101458.66
2023-04-27T04:18:15.262Z,101455.64
2023-04-27T04:19:17.129Z,101455.48
2023-04-27T04:20:18.771Z,101456.95
2023-04-27T04:21:20.352Z,101459.44
2023-04-27T04:22:22.782Z,101453.05
2023-04-27T04:23:24.498Z,101455.70
2023-04-27T04:24:25.920Z,101457.68
2023-04-27T04:25:27.530Z,101459.98
2023-04-27T04:26:30.126Z,101459.40
2023-04-27T04:27:31.676Z,101460.61
2023-04-27T04:28:33.097Z,101459.13
2023-04-27T04:29:34.759Z,101465.55
2023-04-27T04:30:36.117Z,101460.49
2023-04-27T04:31:37.844Z,101460.70
2023-04-27T04:32:39.655Z,101457.88
2023-04-27T04:33:41.319Z,101465.21
2023-04-27T04:34:42.706Z,101463.20
2023-04-27T04:35:44.267Z,101466.21
2023-04-27T04:36:45.861Z,101464.11
2023-04-27T04:37:47.350Z,101463.91
2023-04-27T04:38:49.260Z,101468.48
2023-04-27T04:39:51.615Z,101463.12
2023-04-27T04:40:53.180Z,101464.72
2023-04-27T04:41:54.584Z,101466.52
2023-04-27T04:42:57.080Z,101468.08
2023-04-27T04:43:58.941Z,101465.66
2023-04-27T04:45:00.369Z,101469.62
2023-04-27T04:46:01.854Z,101469.55
2023-04-27T04:47:03.460Z,101468.22
2023-04-27T04:48:05.337Z,101472.30
2023-04-27T04:49:07.423Z,101473.36
2023-04-27T04:50:09.600Z,101467.40
2023-04-27T04:51:11.145Z,101469.11
2023-04-27T04:52:12.565Z,101468.23
2023-04-27T04:53:14.127Z,101467.60
2023-04-27T04:54:16.789Z,101470.33
2023-04-27T04:55:18.439Z,101473.33
2023-04-27T04:56:20.526Z,101468.08
2023-04-27T04:57:22.099Z,101470.96
2023-04-27T04:58:23.688Z,101470.13
2023-04-27T04:59:25.676Z,101473.77
2023-04-27T05:00:27.300Z,101468.43
2023-04-27T05:01:28.797Z,101472.21
2023-04-27T05:02:30.369Z,101471.63
2023-04-27T05:03:32.429Z,101473.61
2023-04-27T05:04:34.298Z,101473.27
2023-04-27T05:05:35.855Z,101473.31
2023-04-27T05:06:37.289Z,101473.74
2023-04-27T05:07:38.718Z,101471.38
2023-04-27T05:08:40.224Z,101475.48
2023-04-27T05:09:42.096Z,101477.64
2023-04-27T05:10:53.324Z,101473.58
2023-04-27T05:11:54.876Z,101476.59
2023-04-27T05:12:56.320Z,101473.52
2023-04-27T05:13:57.745Z,101482.85
2023-04-27T05:14:59.479Z,101477.73
2023-04-27T05:16:05.613Z,101480.17
2023-04-27T05:17:07.314Z,101480.67
2023-04-27T05:18:08.857Z,101483.35
2023-04-27T05:19:10.327Z,101480.60
2023-04-27T05:20:11.981Z,101484.61
2023-04-27T05:21:15.271Z,101484.89
2023-04-27T05:22:16.808Z,101486.66
2023-04-27T05:23:18.199Z,101486.02
2023-04-27T05:24:19.765Z,101487.90
2023-04-27T05:25:21.338Z,101490.65
2023-04-27T05:26:22.788Z,101493.09
2023-04-27T05:27:24.237Z,101492.73
2023-04-27T05:28:25.659Z,101493.81
2023-04-27T05:29:27.439Z,101493.79
2023-04-27T05:30:29.086Z,101502.77
2023-04-27T05:31:30.504Z,101500.25
2023-04-27T05:32:33.093Z,101505.23
2023-04-27T05:33:34.745Z,101502.15
2023-04-27T05:34:36.379Z,101497.95
2023-04-27T05:35:37.852Z,101499.98
2023-04-27T05:36:39.433Z,101502.74
2023-04-27T05:37:40.963Z,101500.09
2023-04-27T05:38:42.752Z,101502.75
2023-04-27T05:39:44.341Z,101506.14
2023-04-27T05:40:45.828Z,101507.60
2023-04-27T05:41:47.283Z,101507.70
2023-04-27T05:42:49.056Z,101507.13
2023-04-27T05:43:50.729Z,101515.92
2023-04-27T05:44:52.190Z,101508.55
2023-04-27T05:45:53.806Z,101511.02
2023-04-27T05:46:55.678Z,101516.66
2023-04-27T05:47:57.110Z,101507.88
2023-04-27T05:48:58.870Z,101512.09
2023-04-27T05:50:00.372Z,101511.66
2023-04-27T05:51:03.038Z,101512.64
2023-04-27T05:52:04.482Z,101507.39
2023-04-27T05:53:06.408Z,101509.06
2023-04-27T05:54:07.887Z,101509.71
2023-04-27T05:55:10.120Z,101510.37
2023-04-27T05:56:11.631Z,101507.32
2023-04-27T05:57:13.392Z,101510.89
2023-04-27T05:58:15.517Z,101508.02
2023-04-27T05:59:17.253Z,101510.73
2023-04-27T06:00:21.612Z,101512.25
2023-04-27T06:01:23.207Z,101509.29
2023-04-27T06:02:25.042Z,101513.77
2023-04-27T06:03:26.943Z,101519.27
2023-04-27T06:04:29.190Z,101515.99
2023-04-27T06:05:30.752Z,101518.79
2023-04-27T06:06:32.881Z,101515.46
2023-04-27T06:07:34.327Z,101517.42
2023-04-27T06:08:38.699Z,101518.17
2023-04-27T06:09:40.950Z,101516.51
2023-04-27T06:10:42.410Z,101516.95
2023-04-27T06:11:44.248Z,101522.07
2023-04-27T06:12:46.396Z,101520.85
2023-04-27T06:13:47.914Z,101524.66
2023-04-27T06:14:49.350Z,101530.81
2023-04-27T06:15:50.828Z,101527.04
2023-04-27T06:16:52.434Z,101524.03
2023-04-27T06:17:53.934Z,101529.81
2023-04-27T06:18:55.617Z,101527.16
2023-04-27T06:19:57.088Z,101526.58
2023-04-27T06:21:00.857Z,101526.48
2023-04-27T06:22:03.426Z,101521.83
2023-04-27T06:23:04.965Z,101527.14
2023-04-27T06:24:06.654Z,101523.30
2023-04-27T06:25:08.419Z,101526.28
2023-04-27T06:26:10.490Z,101524.89
2023-04-27T06:27:12.627Z,101521.20
2023-04-27T06:28:14.083Z,101519.91
2023-04-27T06:29:15.688Z,101524.02
2023-04-27T06:30:17.331Z,101520.09
2023-04-27T06:31:18.828Z,101517.44
2023-04-27T06:32:20.438Z,101517.14
2023-04-27T06:33:21.987Z,101519.95
2023-04-27T06:34:23.380Z,101522.72
2023-04-27T06:35:24.877Z,101524.04
2023-04-27T06:36:27.273Z,101519.45
2023-04-27T06:37:29.488Z,101518.63
2023-04-27T06:38:31.449Z,101518.31
2023-04-27T06:39:33.099Z,101522.69
2023-04-27T06:40:35.178Z,101519.16
2023-04-27T06:41:36.593Z,101515.56
2023-04-27T06:42:38.099Z,101516.57
2023-04-27T06:43:39.533Z,101515.04
2023-04-27T06:44:41.333Z,101511.80
2023-04-27T06:45:42.964Z,101511.51
2023-04-27T06:46:44.409Z,101510.50
2023-04-27T06:47:45.821Z,101506.46
2023-04-27T06:48:47.291Z,101506.92
2023-04-27T06:49:49.888Z,101509.84
2023-04-27T06:50:51.500Z,101512.61
2023-04-27T06:51:53.084Z,101513.92
2023-04-27T06:52:54.650Z,101516.53
2023-04-27T06:53:56.715Z,101519.23
2023-04-27T06:54:58.166Z,101518.52
2023-04-27T06:55:59.719Z,101515.61
2023-04-27T06:57:01.192Z,101520.42
2023-04-27T06:58:02.788Z,101519.75
2023-04-27T06:59:04.402Z,101522.27
2023-04-27T07:00:06.606Z,101524.73
2023-04-27T07:01:08.196Z,101520.80
2023-04-27T07:02:10.378Z,101525.29
2023-04-27T07:03:12.498Z,101526.11
2023-04-27T07:04:14.189Z,101528.95
2023-04-27T07:05:15.727Z,101527.19
2023-04-27T07:06:17.174Z,101525.48
2023-04-27T07:07:18.662Z,101528.61
2023-04-27T07:08:20.358Z,101524.78
2023-04-27T07:10:28.012Z,101522.11
2023-04-27T07:11:29.440Z,101518.32
2023-04-27T07:12:30.903Z,101522.88
2023-04-27T07:13:32.610Z,101525.02
2023-04-27T07:14:34.211Z,101521.57
2023-04-27T07:15:35.960Z,101524.40
2023-04-27T07:16:38.722Z,101517.96
2023-04-27T07:17:40.913Z,101526.39
2023-04-27T07:18:43.683Z,101527.85
2023-04-27T07:19:45.169Z,101521.29
2023-04-27T07:20:46.565Z,101521.25
2023-04-27T07:21:48.003Z,101524.48
2023-04-27T07:22:49.708Z,101532.96
2023-04-27T07:23:51.303Z,101530.66
2023-04-27T07:24:53.478Z,101540.45
2023-04-27T07:25:55.031Z,101539.11
2023-04-27T07:26:58.731Z,101537.38
2023-04-27T07:28:00.150Z,101534.35
2023-04-27T07:29:08.253Z,101541.83
2023-04-27T07:30:13.658Z,101534.43
2023-04-27T07:31:15.443Z,101539.36
2023-04-27T07:32:17.403Z,101542.85
2023-04-27T07:33:18.905Z,101535.42
2023-04-27T07:34:20.421Z,101532.17
2023-04-27T07:35:22.076Z,101534.55
2023-04-27T07:36:23.503Z,101536.65
2023-04-27T07:37:26.069Z,101540.54
2023-04-27T07:38:29.474Z,101543.13
2023-04-27T07:39:31.027Z,101538.47
2023-04-27T07:40:33.878Z,101533.16
2023-04-27T07:41:35.336Z,101537.98
2023-04-27T07:42:38.888Z,101533.58
2023-04-27T07:43:41.604Z,101538.91
2023-04-27T07:44:43.611Z,101529.60
2023-04-27T07:45:45.222Z,101536.96
2023-04-27T07:46:48.297Z,101533.02
2023-04-27T07:47:49.979Z,101533.55
2023-04-27T07:48:51.602Z,101536.85
2023-04-27T07:49:53.545Z,101537.81
2023-04-27T07:50:54.965Z,101534.52
2023-04-27T07:51:56.781Z,101531.27
2023-04-27T07:52:59.130Z,101534.52
2023-04-27T07:54:01.942Z,101538.27
2023-04-27T07:55:04.082Z,101540.34
2023-04-27T07:56:05.969Z,101546.62
2023-04-27T07:57:09.518Z,101547.03
2023-04-27T07:58:11.092Z,101545.61
2023-04-27T07:59:14.179Z,101541.54
2023-04-27T08:00:16.939Z,101543.45
2023-04-27T08:01:20.185Z,101539.79
2023-04-27T08:02:22.926Z,101540.34
2023-04-27T08:03:24.748Z,101542.71
2023-04-27T08:04:27.023Z,101539.19
2023-04-27T08:05:29.730Z,101535.02
2023-04-27T08:06:32.110Z,101541.29
2023-04-27T08:07:37.166Z,101545.63
2023-04-27T08:08:42.573Z,101538.02
2023-04-27T08:09:44.269Z,101540.30
2023-04-27T08:10:45.848Z,101541.91
2023-04-27T08:11:47.306Z,101542.54
2023-04-27T08:12:49.161Z,101541.84
2023-04-27T08:13:50.519Z,101546.88
2023-04-27T08:14:52.150Z,101547.89
2023-04-27T08:15:58.724Z,101545.08
2023-04-27T08:17:00.433Z,101545.08
2023-04-27T08:18:02.091Z,101548.65
2023-04-27T08:19:03.661Z,101543.73
2023-04-27T08:20:06.394Z,101550.83
2023-04-27T08:21:08.067Z,101549.80
2023-04-27T08:22:09.976Z,101575.59
2023-04-27T08:23:11.812Z,101579.12
2023-04-27T08:24:13.264Z,101576.28
2023-04-27T08:25:15.203Z,101580.64
2023-04-27T08:26:17.033Z,101582.60
2023-04-27T08:27:18.459Z,101588.61
2023-04-27T08:28:19.969Z,101590.55
2023-04-27T08:29:27.799Z,101591.65
2023-04-27T08:30:30.697Z,101588.72
2023-04-27T08:31:32.610Z,101595.02
2023-04-27T08:32:34.279Z,101599.27
2023-04-27T08:33:36.025Z,101601.27
2023-04-27T08:34:37.548Z,101596.38
2023-04-27T08:35:39.002Z,101591.20
2023-04-27T08:36:40.558Z,101593.98
2023-04-27T08:37:42.185Z,101591.45
2023-04-27T08:38:44.035Z,101586.23
2023-04-27T08:39:47.312Z,101584.19
2023-04-27T08:40:48.799Z,101587.70
2023-04-27T08:41:50.949Z,101582.70
2023-04-27T08:42:57.322Z,101585.65
2023-04-27T08:43:59.654Z,101585.31
2023-04-27T08:45:01.282Z,101583.84
2023-04-27T08:46:02.831Z,101584.44
2023-04-27T08:47:04.364Z,101586.23
2023-04-27T08:48:05.838Z,101585.91
2023-04-27T08:49:07.984Z,101583.98
2023-04-27T08:50:10.963Z,101586.88
2023-04-27T08:51:14.619Z,101588.95
2023-04-27T08:52:17.027Z,101587.64
2023-04-27T08:53:20.806Z,101586.65
2023-04-27T08:54:22.238Z,101580.23
2023-04-27T08:55:23.668Z,101581.75
2023-04-27T08:56:27.321Z,101582.57
2023-04-27T08:57:28.871Z,101574.27
2023-04-27T08:58:37.297Z,101578.23
2023-04-27T08:59:39.951Z,101573.56
2023-04-27T09:00:44.477Z,101571.48
2023-04-27T09:01:53.036Z,101571.59
2023-04-27T09:02:55.341Z,101568.54
2023-04-27T09:03:58.733Z,101571.00
2023-04-27T09:05:00.696Z,101570.95
2023-04-27T09:06:05.557Z,101565.46
2023-04-27T09:07:15.176Z,101569.77
2023-04-27T09:08:16.780Z,101567.74
2023-04-27T09:09:22.828Z,101561.63
2023-04-27T09:10:24.270Z,101559.45
2023-04-27T09:11:32.404Z,101554.69
2023-04-27T09:12:34.070Z,101556.60
2023-04-27T09:13:37.424Z,101551.98
2023-04-27T09:14:38.843Z,101548.11
2023-04-27T09:15:46.424Z,101549.46
2023-04-27T09:16:58.574Z,101552.08
2023-04-27T09:18:00.116Z,101549.78
2023-04-27T09:19:02.127Z,101552.13
2023-04-27T09:20:12.642Z,101553.69
2023-04-27T09:21:21.790Z,101557.55
2023-04-27T09:22:23.170Z,101556.00
2023-04-27T09:23:33.343Z,101559.72
2023-04-27T09:24:35.353Z,101560.71
2023-04-27T09:25:36.785Z,101565.68
2023-04-27T09:26:38.374Z,101563.67
2023-04-27T09:27:43.490Z,101569.24
2023-04-27T09:28:47.827Z,101567.11
2023-04-27T09:29:49.533Z,101570.24
2023-04-27T09:30:54.113Z,101567.39
2023-04-27T09:31:55.615Z,101574.03
2023-04-27T09:33:01.350Z,101571.31
2023-04-27T09:34:03.195Z,101568.71
2023-04-27T09:35:20.016Z,101573.48
2023-04-27T09:36:22.701Z,101569.08
2023-04-27T09:37:26.340Z,101573.79
2023-04-27T09:38:29.038Z,101576.03
2023-04-27T09:39:30.786Z,101577.95
2023-04-27T09:40:32.941Z,101579.70
2023-04-27T09:41:34.964Z,101580.08
2023-04-27T09:42:36.877Z,101576.97
2023-04-27T09:43:38.988Z,101574.96
2023-04-27T09:44:40.554Z,101576.77
2023-04-27T09:45:42.792Z,101569.98
2023-04-27T09:46:48.113Z,101569.40
2023-04-27T09:47:49.633Z,101569.15
2023-04-27T09:48:51.936Z,101575.27
2023-04-27T09:49:53.461Z,101576.64
2023-04-27T09:50:55.779Z,101575.94
2023-04-27T09:51:58.185Z,101577.67
2023-04-27T09:53:00.158Z,101580.73
2023-04-27T09:54:03.952Z,101579.98
2023-04-27T09:55:11.541Z,101582.13
2023-04-27T09:56:29.085Z,101582.64
2023-04-27T09:57:44.873Z,101588.73
2023-04-27T09:59:01.075Z,101588.21
2023-04-27T10:00:25.161Z,101591.10
2023-04-27T10:01:42.819Z,101592.59
2023-04-27T10:03:20.288Z,101604.53
2023-04-27T10:04:30.781Z,101632.02
2023-04-27T10:05:46.060Z,101632.67
2023-04-27T10:07:12.027Z,101636.54
2023-04-27T10:08:14.642Z,101632.50
2023-04-27T10:09:22.956Z,101634.75
2023-04-27T10:10:24.939Z,101631.25
2023-04-27T10:11:40.997Z,101636.54
2023-04-27T10:12:42.956Z,101639.23
2023-04-27T10:13:55.070Z,101640.17
2023-04-27T10:14:58.382Z,101636.27
2023-04-27T10:16:15.912Z,101629.78
2023-04-27T10:17:19.260Z,101632.91
2023-04-27T10:18:30.289Z,101627.25
2023-04-27T10:19:31.950Z,101626.55
2023-04-27T10:20:37.287Z,101625.45
2023-04-27T10:22:02.797Z,101625.98
2023-04-27T10:23:04.646Z,101620.66
2023-04-27T10:24:09.150Z,101617.82
2023-04-27T10:25:17.121Z,101620.13
2023-04-27T10:26:26.171Z,101618.29
2023-04-27T10:27:27.598Z,101617.98
2023-04-27T10:28:38.193Z,101624.72
2023-04-27T10:29:42.417Z,101623.02
2023-04-27T10:30:46.587Z,101629.98
2023-04-27T10:31:48.311Z,101620.46
2023-04-27T10:32:51.991Z,101620.36
2023-04-27T10:33:53.655Z,101608.50
2023-04-27T10:35:08.907Z,101604.10
2023-04-27T10:36:14.919Z,101599.80
2023-04-27T10:37:19.801Z,101602.48
2023-04-27T10:38:27.884Z,101604.91
2023-04-27T10:39:47.135Z,101602.20
2023-04-27T10:41:00.842Z,101603.12
2023-04-27T10:42:02.818Z,101596.48
2023-04-27T10:43:09.524Z,101599.88
2023-04-27T10:44:17.135Z,101604.61
2023-04-27T10:45:31.137Z,101608.13
2023-04-27T10:46:35.673Z,101611.56
2023-04-27T10:47:47.130Z,101606.65
2023-04-27T10:48:48.621Z,101605.67
2023-04-27T10:49:56.130Z,101606.20
2023-04-27T10:50:58.729Z,101605.75
2023-04-27T10:52:04.137Z,101606.79
2023-04-27T10:53:06.755Z,101604.48
2023-04-27T10:54:08.348Z,101600.08
2023-04-27T10:55:21.165Z,101602.48
2023-04-27T10:56:24.197Z,101601.95
2023-04-27T10:57:26.064Z,101597.36
2023-04-27T10:58:37.854Z,101595.23
2023-04-27T10:59:52.236Z,101597.09
2023-04-27T11:00:53.953Z,101593.95
2023-04-27T11:01:55.492Z,101589.39
2023-04-27T11:03:10.493Z,101587.29
2023-04-27T11:04:12.455Z,101584.73
2023-04-27T11:05:19.003Z,101586.99
2023-04-27T11:06:20.627Z,101594.06
2023-04-27T11:07:27.475Z,101590.23
2023-04-27T11:08:30.291Z,101583.67
2023-04-27T11:09:31.810Z,101585.46
2023-04-27T11:10:37.088Z,101585.83
2023-04-27T11:11:43.799Z,101589.23
2023-04-27T11:12:45.963Z,101594.23
2023-04-27T11:13:49.272Z,101595.69
2023-04-27T11:14:56.927Z,101592.08
2023-04-27T11:15:59.317Z,101600.04
2023-04-27T11:17:00.817Z,101593.53
2023-04-27T11:18:06.297Z,101599.39
2023-04-27T11:19:08.069Z,101597.40
2023-04-27T11:20:10.023Z,101594.52
2023-04-27T11:21:22.962Z,101591.73
2023-04-27T11:22:24.889Z,101593.80
2023-04-27T11:23:40.777Z,101593.20
2023-04-27T11:24:49.819Z,101594.10
2023-04-27T11:25:51.801Z,101596.03
2023-04-27T11:26:53.325Z,101594.77
2023-04-27T11:27:54.927Z,101593.77
2023-04-27T11:29:11.797Z,101589.95
2023-04-27T11:30:21.141Z,101594.70
2023-04-27T11:31:22.738Z,101596.42
2023-04-27T11:32:25.043Z,101599.24
2023-04-27T11:33:27.554Z,101596.05
2023-04-27T11:34:33.987Z,101597.21
2023-04-27T11:35:35.932Z,101593.04
2023-04-27T11:36:37.723Z,101593.55
2023-04-27T11:37:39.310Z,101590.48
2023-04-27T11:38:41.787Z,101594.23
2023-04-27T11:39:45.143Z,101599.36
2023-04-27T11:40:58.221Z,101605.36
2023-04-27T11:42:21.270Z,101603.52
2023-04-27T11:43:25.361Z,101603.36
2023-04-27T11:44:27.168Z,101600.13
2023-04-27T11:45:29.273Z,101600.86
2023-04-27T11:46:31.252Z,101601.70
2023-04-27T11:47:34.961Z,101604.02
2023-04-27T11:48:38.453Z,101601.10
2023-04-27T11:49:39.982Z,101604.17
2023-04-27T11:50:48.299Z,101603.96
2023-04-27T11:51:50.515Z,101602.20
2023-04-27T11:52:52.752Z,101600.66
2023-04-27T11:53:54.284Z,101602.52
2023-04-27T11:54:56.087Z,101598.68
2023-04-27T11:56:10.278Z,101600.48
2023-04-27T11:57:13.135Z,101602.10
2023-04-27T11:58:15.645Z,101597.63
2023-04-27T11:59:22.460Z,101596.44
2023-04-27T12:00:24.124Z,101601.33
2023-04-27T12:01:36.966Z,101602.39